| time (UTC) | temp F | wind direction | speed knots | gust knots | rain 1hr in | rain 24hr in | rain mn in | humidity % | barometer mb |
| 20260502231555 | 57 | 360 | 0.0 | 1.7 | 0.11 | 0.12 | 0.11 | 93 | 1014.5 |
| 20260502230056 | 58 | 0 | 0.0 | 2.6 | 0.05 | 0.06 | 0.05 | 91 | 1015.0 |
| 20260502224555 | 59 | 360 | 0.9 | 7.0 | 0.01 | 0.02 | 0.01 | 87 | 1015.1 |
| 20260502223054 | 61 | 0 | 0.0 | 0.0 | 0.00 | 0.00 | 0.00 | 86 | 1015.2 |
| 20260502221557 | 61 | 0 | 0.0 | 0.0 | 0.00 | 0.00 | 0.00 | 85 | 1014.9 |
| 20260502220055 | 61 | 0 | 0.0 | 0.0 | 0.00 | 0.00 | 0.00 | 85 | 1014.7 |
| 20260502214605 | 61 | 0 | 0.0 | 0.0 | 0.00 | 0.00 | 0.00 | 85 | 1013.9 |
| 20260502213059 | 61 | 0 | 0.0 | 1.7 | 0.00 | 0.00 | 0.00 | 84 | 1013.8 |
| 20260502211558 | 61 | 0 | 0.0 | 1.7 | 0.00 | 0.00 | 0.00 | 83 | 1014.0 |
| 20260502210121 | 62 | 0 | 0.0 | 2.6 | 0.00 | 0.00 | 0.00 | 82 | 1014.2 |
| 20260502204558 | 63 | 0 | 0.0 | 1.7 | 0.00 | 0.00 | 0.00 | 79 | 1014.7 |
| 20260502203058 | 64 | 167 | 0.9 | 4.3 | 0.00 | 0.00 | 0.00 | 76 | 1015.0 |
| 20260502201610 | 64 | 49 | 0.0 | 1.7 | 0.00 | 0.00 | 0.00 | 73 | 1015.0 |
| 20260502200057 | 65 | 0 | 0.0 | 0.9 | 0.00 | 0.00 | 0.00 | 72 | 1015.0 |
| 20260502194557 | 65 | 0 | 0.0 | 0.9 | 0.00 | 0.00 | 0.00 | 71 | 1014.9 |
| 20260502193058 | 66 | 0 | 0.0 | 2.6 | 0.00 | 0.00 | 0.00 | 70 | 1014.9 |
| 20260502191556 | 67 | 0 | 0.0 | 4.3 | 0.00 | 0.00 | 0.00 | 69 | 1014.9 |
| 20260502190059 | 67 | 12 | 0.9 | 4.3 | 0.00 | 0.00 | 0.00 | 68 | 1014.8 |
| 20260502184611 | 69 | 320 | 1.7 | 7.0 | 0.00 | 0.00 | 0.00 | 67 | 1014.7 |
| 20260502183103 | 70 | 0 | 0.0 | 1.7 | 0.00 | 0.00 | 0.00 | 64 | 1014.5 |
| 20260502181609 | 71 | 0 | 0.0 | 2.6 | 0.00 | 0.00 | 0.00 | 65 | 1014.5 |
| 20260502163059 | 74 | 285 | 0.9 | 6.1 | 0.00 | 0.00 | 0.00 | 59 | 1015.4 |
| 20260502161559 | 74 | 289 | 0.9 | 5.2 | 0.00 | 0.00 | 0.00 | 58 | 1015.6 |
| 20260502151622 | 76 | 167 | 0.9 | 5.2 | 0.00 | 0.00 | 0.00 | 58 | 1016.3 |
| 20260502150109 | 74 | 0 | 0.0 | 6.1 | 0.00 | 0.00 | 0.00 | 58 | 1016.4 |
| 20260502123105 | 73 | 0 | 0.9 | 7.8 | 0.00 | 0.00 | 0.00 | 59 | 1017.8 |
| 20260502121557 | 73 | 179 | 1.7 | 9.6 | 0.00 | 0.00 | 0.00 | 57 | 1017.8 |
| 20260502114600 | 75 | 254 | 0.9 | 5.2 | 0.00 | 0.00 | 0.00 | 57 | 1017.9 |
| 20260502113057 | 74 | 267 | 1.7 | 6.1 | 0.00 | 0.00 | 0.00 | 56 | 1018.2 |
| 20260502111601 | 75 | 201 | 0.0 | 7.8 | 0.00 | 0.00 | 0.00 | 56 | 1018.3 |
| 20260502104558 | 73 | 275 | 1.7 | 6.1 | 0.00 | 0.00 | 0.00 | 58 | 1018.5 |
| 20260502103103 | 72 | 169 | 0.9 | 6.1 | 0.00 | 0.00 | 0.00 | 58 | 1018.5 |
| 20260502101631 | 73 | 209 | 0.9 | 6.1 | 0.00 | 0.00 | 0.00 | 57 | 1018.6 |
| 20260502100122 | 71 | 360 | 1.7 | 5.2 | 0.00 | 0.00 | 0.00 | 59 | 1018.7 |
| 20260502080104 | 56 | 0 | 0.0 | 1.7 | 0.00 | 0.00 | 0.00 | 82 | 1019.3 |
| 20260502070059 | 60 | 0 | 0.0 | 2.6 | 0.00 | 0.00 | 0.00 | 58 | 1019.2 |
| 20260502064602 | 60 | 273 | 0.0 | 2.6 | 0.00 | 0.00 | 0.00 | 58 | 1019.1 |
| 20260502063102 | 59 | 189 | 0.0 | 7.0 | 0.00 | 0.00 | 0.00 | 59 | 1019.1 |
| 20260502061559 | 56 | 0 | 0.9 | 7.0 | 0.00 | 0.00 | 0.00 | 65 | 1019.1 |
| 20260502060058 | 55 | 0 | 0.0 | 1.7 | 0.00 | 0.00 | 0.00 | 67 | 1019.2 |
| 20260502054559 | 50 | 0 | 0.0 | 0.9 | 0.00 | 0.00 | 0.00 | 79 | 1018.9 |
| 20260502053113 | 46 | 0 | 0.0 | 0.9 | 0.00 | 0.00 | 0.00 | 81 | 1019.0 |
| 20260502051559 | 45 | 0 | 0.0 | 0.0 | 0.00 | 0.00 | 0.00 | 81 | 1018.9 |
| 20260502050059 | 44 | 0 | 0.0 | 0.0 | 0.00 | 0.00 | 0.00 | 81 | 1019.0 |
| 20260502044556 | 43 | 0 | 0.0 | 0.0 | 0.00 | 0.00 | 0.00 | 82 | 1018.9 |
| 20260502043108 | 43 | 0 | 0.0 | 0.0 | 0.00 | 0.00 | 0.00 | 83 | 1019.2 |
| 20260502041603 | 43 | 0 | 0.0 | 0.0 | 0.00 | 0.00 | 0.00 | 82 | 1019.3 |
| 20260502040100 | 43 | 0 | 0.0 | 0.9 | 0.00 | 0.00 | 0.00 | 81 | 1019.2 |
| 20260502034557 | 43 | 0 | 0.0 | 0.9 | 0.00 | 0.00 | 0.00 | 81 | 1019.3 |
| 20260502033103 | 43 | 0 | 0.0 | 0.9 | 0.00 | 0.00 | 0.00 | 80 | 1019.5 |
| 20260502031602 | 43 | 0 | 0.0 | 0.9 | 0.00 | 0.00 | 0.00 | 79 | 1019.7 |
| 20260502030101 | 44 | 0 | 0.0 | 0.9 | 0.00 | 0.00 | 0.00 | 79 | 1019.7 |
| 20260502024558 | 44 | 0 | 0.0 | 0.9 | 0.00 | 0.00 | 0.00 | 79 | 1019.7 |
| 20260502023110 | 44 | 0 | 0.0 | 0.0 | 0.00 | 0.00 | 0.00 | 78 | 1019.9 |
| 20260502021558 | 45 | 0 | 0.0 | 0.9 | 0.00 | 0.00 | 0.00 | 78 | 1019.9 |
| 20260502020056 | 45 | 0 | 0.0 | 0.9 | 0.00 | 0.00 | 0.00 | 77 | 1020.0 |
| 20260502014600 | 45 | 0 | 0.0 | 0.0 | 0.00 | 0.00 | 0.00 | 76 | 1020.1 |
| 20260502013058 | 46 | 0 | 0.0 | 0.0 | 0.00 | 0.00 | 0.00 | 76 | 1020.1 |
| 20260502011600 | 46 | 0 | 0.0 | 0.0 | 0.00 | 0.00 | 0.00 | 76 | 1020.2 |
| 20260502010058 | 46 | 0 | 0.0 | 0.0 | 0.00 | 0.00 | 0.00 | 75 | 1020.4 |
| 20260502004611 | 47 | 0 | 0.0 | 0.0 | 0.00 | 0.00 | 0.00 | 74 | 1020.6 |
| 20260502003057 | 47 | 0 | 0.0 | 0.0 | 0.00 | 0.00 | 0.00 | 73 | 1020.7 |
| 20260502001556 | 48 | 0 | 0.0 | 0.0 | 0.00 | 0.00 | 0.00 | 73 | 1020.9 |
| 20260501234600 | 49 | 0 | 0.0 | 0.0 | 0.00 | 0.00 | 0.00 | 71 | 1021.2 |
| 20260501233100 | 49 | 0 | 0.0 | 0.0 | 0.00 | 0.00 | 0.00 | 71 | 1021.2 |